Time,TemperatureF,DewpointF,PressureIn,WindDirection,WindDirectionDegrees,WindSpeedMPH,WindSpeedGustMPH,Humidity,HourlyPrecipIn,Conditions,Clouds,dailyrainin,SolarRadiationWatts/m^2,SoftwareType,DateUTC
2013-08-16 00:02:00,54.0,53.0,-100.00,North,1,0.0,0.0,96,0.00,,,0.00,0.000000,,2013-08-16 05:02:00,
2013-08-16 01:10:00,52.0,51.0,-100.00,North,1,0.0,0.0,98,0.00,,,0.00,0.000000,,2013-08-16 06:10:00,
2013-08-16 02:00:00,52.0,51.0,-100.00,North,1,0.0,0.0,98,0.00,,,0.00,0.000000,,2013-08-16 07:00:00,
2013-08-16 02:01:00,52.0,51.0,-100.00,North,1,0.0,0.0,98,0.00,,,0.00,0.000000,,2013-08-16 07:01:00,
2013-08-16 02:10:00,51.0,51.0,-100.00,North,1,0.0,0.0,99,0.00,,,0.00,0.000000,,2013-08-16 07:10:00,
2013-08-16 02:42:00,51.0,51.0,-100.00,North,1,0.0,0.0,99,0.00,,,0.00,0.000000,,2013-08-16 07:42:00,
2013-08-16 02:52:00,51.0,51.0,-100.00,North,1,0.0,0.0,99,0.00,,,0.00,0.000000,,2013-08-16 07:52:00,
2013-08-16 03:01:00,51.0,51.0,-100.00,North,1,0.0,0.0,99,0.00,,,0.00,0.000000,,2013-08-16 08:01:00,
2013-08-16 03:10:00,50.0,50.0,-100.00,North,1,0.0,0.0,99,0.00,,,0.00,0.000000,,2013-08-16 08:10:00,
2013-08-16 03:42:00,50.0,50.0,-100.00,North,1,0.0,0.0,99,0.00,,,0.00,0.000000,,2013-08-16 08:42:00,
2013-08-16 03:52:00,50.0,50.0,-100.00,North,1,0.0,0.0,99,0.00,,,0.00,0.000000,,2013-08-16 08:52:00,
2013-08-16 04:01:00,50.0,50.0,-100.00,North,1,0.0,0.0,99,0.00,,,0.00,0.000000,,2013-08-16 09:01:00,
2013-08-16 04:10:00,49.0,49.0,-100.00,North,1,0.0,0.0,99,0.00,,,0.00,0.000000,,2013-08-16 09:10:00,
2013-08-16 04:42:00,49.0,49.0,-100.00,North,1,0.0,0.0,99,0.00,,,0.00,0.000000,,2013-08-16 09:42:00,
2013-08-16 04:53:00,49.0,49.0,-100.00,North,1,0.0,0.0,99,0.00,,,0.00,0.000000,,2013-08-16 09:53:00,
2013-08-16 05:03:00,49.0,49.0,-100.00,North,1,0.0,0.0,99,0.00,,,0.00,0.000000,,2013-08-16 10:03:00,
2013-08-16 05:10:00,49.0,49.0,-100.00,North,1,0.0,0.0,99,0.00,,,0.00,0.000000,,2013-08-16 10:10:00,
2013-08-16 05:42:00,49.0,49.0,-100.00,North,1,0.0,0.0,99,0.00,,,0.00,0.000000,,2013-08-16 10:42:00,
2013-08-16 05:53:00,49.0,49.0,-100.00,North,1,0.0,0.0,99,0.00,,,0.00,0.000000,,2013-08-16 10:53:00,
2013-08-16 06:02:00,49.0,49.0,-100.00,North,1,0.0,0.0,99,0.00,,,0.00,0.000000,,2013-08-16 11:02:00,
2013-08-16 06:10:00,47.0,47.0,-100.00,North,1,0.0,0.0,99,0.00,,,0.00,1.000000,,2013-08-16 11:10:00,
2013-08-16 06:42:00,47.0,47.0,-100.00,North,1,0.0,0.0,99,0.00,,,0.00,1.000000,,2013-08-16 11:42:00,
2013-08-16 06:52:00,47.0,47.0,-100.00,North,1,0.0,0.0,99,0.00,,,0.00,1.000000,,2013-08-16 11:52:00,
2013-08-16 07:02:00,47.0,47.0,-100.00,North,1,0.0,0.0,99,0.00,,,0.00,1.000000,,2013-08-16 12:02:00,
2013-08-16 07:10:00,49.0,49.0,-100.00,North,1,0.0,0.0,99,0.00,,,0.00,18.000000,,2013-08-16 12:10:00,
2013-08-16 07:42:00,49.0,49.0,-100.00,North,1,0.0,0.0,99,0.00,,,0.00,18.000000,,2013-08-16 12:42:00,
2013-08-16 07:52:00,49.0,49.0,-100.00,North,1,0.0,0.0,99,0.00,,,0.00,18.000000,,2013-08-16 12:52:00,
2013-08-16 08:02:00,49.0,49.0,-100.00,North,1,0.0,0.0,99,0.00,,,0.00,18.000000,,2013-08-16 13:02:00,
2013-08-16 08:10:00,56.0,56.0,-100.00,North,2,0.0,1.0,99,0.00,,,0.00,41.000000,,2013-08-16 13:10:00,
2013-08-16 08:42:00,56.0,56.0,-100.00,North,2,0.0,1.0,99,0.00,,,0.00,41.000000,,2013-08-16 13:42:00,
2013-08-16 08:53:00,56.0,56.0,-100.00,North,2,0.0,1.0,99,0.00,,,0.00,41.000000,,2013-08-16 13:53:00,
2013-08-16 09:02:00,56.0,56.0,-100.00,North,2,0.0,1.0,99,0.00,,,0.00,41.000000,,2013-08-16 14:02:00,
2013-08-16 09:10:00,63.0,57.0,-100.00,NNE,20,1.0,4.0,81,0.00,,,0.00,189.000000,,2013-08-16 14:10:00,
2013-08-16 09:42:00,63.0,57.0,-100.00,NNE,20,1.0,4.0,81,0.00,,,0.00,189.000000,,2013-08-16 14:42:00,
2013-08-16 09:52:00,63.0,57.0,-100.00,NNE,20,1.0,4.0,81,0.00,,,0.00,189.000000,,2013-08-16 14:52:00,
2013-08-16 10:01:00,63.0,57.0,-100.00,NNE,20,1.0,4.0,81,0.00,,,0.00,189.000000,,2013-08-16 15:01:00,
2013-08-16 10:10:00,71.0,58.0,-100.00,NNE,33,1.0,5.0,64,0.00,,,-99.99,333.000000,,2013-08-16 15:10:00,
2013-08-16 10:43:00,71.0,58.0,-100.00,NNE,33,1.0,5.0,64,0.00,,,-99.99,333.000000,,2013-08-16 15:43:00,
2013-08-16 10:56:00,71.0,58.0,-100.00,NNE,33,1.0,5.0,64,0.00,,,-99.99,333.000000,,2013-08-16 15:56:00,
2013-08-16 11:04:00,71.0,58.0,-100.00,NNE,33,1.0,5.0,64,0.00,,,-99.99,333.000000,,2013-08-16 16:04:00,
2013-08-16 11:10:00,75.0,55.0,-100.00,NNE,14,2.0,5.0,49,0.00,,,0.00,575.000000,,2013-08-16 16:10:00,
2013-08-16 11:44:00,75.0,55.0,-100.00,NNE,14,2.0,5.0,49,0.00,,,0.00,575.000000,,2013-08-16 16:44:00,
2013-08-16 11:57:00,75.0,55.0,-100.00,NNE,14,2.0,5.0,49,0.00,,,0.00,575.000000,,2013-08-16 16:57:00,
2013-08-16 12:03:00,75.0,55.0,-100.00,NNE,14,2.0,5.0,49,0.00,,,0.00,575.000000,,2013-08-16 17:03:00,
2013-08-16 12:10:00,78.0,52.0,-100.00,WNW,301,2.0,5.0,40,0.00,,,0.00,639.000000,,2013-08-16 17:10:00,
2013-08-16 12:47:00,78.0,52.0,-100.00,WNW,301,2.0,5.0,40,0.00,,,0.00,639.000000,,2013-08-16 17:47:00,
2013-08-16 13:00:00,78.0,52.0,-100.00,WNW,301,2.0,5.0,40,0.00,,,0.00,639.000000,,2013-08-16 18:00:00,
2013-08-16 13:06:00,78.0,52.0,-100.00,WNW,301,2.0,5.0,40,0.00,,,0.00,639.000000,,2013-08-16 18:06:00,
2013-08-16 13:10:00,80.0,50.0,-100.00,East,101,2.0,8.0,35,0.00,,,0.00,822.000000,,2013-08-16 18:10:00,
2013-08-16 13:50:00,-999.0,-99.9,-100.00,East,101,2.0,8.0,35,0.00,,,0.00,822.000000,,2013-08-16 18:50:00,
2013-08-16 14:03:00,80.0,50.0,-100.00,East,101,2.0,8.0,35,0.00,,,0.00,822.000000,,2013-08-16 19:03:00,
2013-08-16 14:10:00,81.0,50.0,-100.00,SSW,201,3.0,9.0,34,0.00,,,0.00,806.000000,,2013-08-16 19:10:00,
2013-08-16 14:46:00,81.0,50.0,-100.00,SSW,201,3.0,9.0,34,0.00,,,0.00,806.000000,,2013-08-16 19:46:00,
2013-08-16 14:55:00,81.0,50.0,-100.00,SSW,201,3.0,9.0,34,0.00,,,0.00,806.000000,,2013-08-16 19:55:00,
2013-08-16 15:02:00,81.0,50.0,-100.00,SSW,201,3.0,9.0,34,0.00,,,0.00,806.000000,,2013-08-16 20:02:00,
2013-08-16 15:10:00,82.0,52.0,-100.00,SW,232,2.0,10.0,35,0.00,,,0.00,751.000000,,2013-08-16 20:10:00,
2013-08-16 15:44:00,82.0,52.0,-100.00,SW,232,2.0,10.0,35,0.00,,,0.00,751.000000,,2013-08-16 20:44:00,
2013-08-16 15:52:00,82.0,52.0,-100.00,SW,232,2.0,10.0,35,0.00,,,0.00,751.000000,,2013-08-16 20:52:00,
2013-08-16 16:01:00,82.0,52.0,-100.00,SW,232,2.0,10.0,35,0.00,,,0.00,751.000000,,2013-08-16 21:01:00,
2013-08-16 16:10:00,81.0,50.0,-100.00,SSW,198,3.0,10.0,34,0.00,,,0.00,637.000000,,2013-08-16 21:10:00,
2013-08-16 16:40:00,-999.0,-99.9,-100.00,SSW,198,3.0,10.0,-999,0.00,,,0.00,637.000000,,2013-08-16 21:40:00,
2013-08-16 16:54:00,81.0,50.0,-100.00,SSW,198,3.0,10.0,34,0.00,,,0.00,637.000000,,2013-08-16 21:54:00,
2013-08-16 17:07:00,81.0,50.0,-100.00,SSW,198,3.0,10.0,34,0.00,,,0.00,637.000000,,2013-08-16 22:07:00,
2013-08-16 17:10:00,80.0,50.0,-100.00,WSW,250,2.0,10.0,35,0.00,,,0.00,473.000000,,2013-08-16 22:10:00,
2013-08-16 17:43:00,80.0,50.0,-100.00,WSW,250,2.0,10.0,35,0.00,,,0.00,473.000000,,2013-08-16 22:43:00,
2013-08-16 17:52:00,80.0,50.0,-100.00,WSW,250,2.0,10.0,35,0.00,,,0.00,473.000000,,2013-08-16 22:52:00,
2013-08-16 18:09:00,80.0,50.0,-100.00,WSW,250,2.0,10.0,35,0.00,,,0.00,473.000000,,2013-08-16 23:09:00,
2013-08-16 18:10:00,80.0,53.0,-100.00,SSW,209,1.0,8.0,39,0.00,,,0.00,280.000000,,2013-08-16 23:10:00,
2013-08-16 18:42:00,80.0,53.0,-100.00,SSW,209,1.0,8.0,39,0.00,,,0.00,280.000000,,2013-08-16 23:42:00,
2013-08-16 18:52:00,80.0,53.0,-100.00,SSW,209,1.0,8.0,39,0.00,,,0.00,280.000000,,2013-08-16 23:52:00,
2013-08-16 19:01:00,80.0,53.0,-100.00,SSW,209,1.0,8.0,39,0.00,,,0.00,280.000000,,2013-08-17 00:01:00,
2013-08-16 19:10:00,74.0,54.0,-100.00,SSW,213,1.0,5.0,50,0.00,,,0.00,141.000000,,2013-08-17 00:10:00,
2013-08-16 19:42:00,74.0,54.0,-100.00,SSW,213,1.0,5.0,50,0.00,,,0.00,141.000000,,2013-08-17 00:42:00,
2013-08-16 19:52:00,74.0,54.0,-100.00,SSW,213,1.0,5.0,50,0.00,,,0.00,141.000000,,2013-08-17 00:52:00,
2013-08-16 20:01:00,74.0,54.0,-100.00,SSW,213,1.0,5.0,50,0.00,,,0.00,141.000000,,2013-08-17 01:01:00,
2013-08-16 20:10:00,67.0,56.0,-100.00,SW,235,0.0,4.0,68,0.00,,,0.00,16.000000,,2013-08-17 01:10:00,
2013-08-16 20:42:00,67.0,56.0,-100.00,SW,235,0.0,4.0,68,0.00,,,0.00,16.000000,,2013-08-17 01:42:00,
2013-08-16 20:52:00,67.0,56.0,-100.00,SW,235,0.0,4.0,68,0.00,,,0.00,16.000000,,2013-08-17 01:52:00,
2013-08-16 21:01:00,67.0,56.0,-100.00,SW,235,0.0,4.0,68,0.00,,,0.00,16.000000,,2013-08-17 02:01:00,
2013-08-16 21:10:00,62.0,58.0,-100.00,SW,235,0.0,1.0,87,0.00,,,0.00,0.000000,,2013-08-17 02:10:00,
2013-08-16 21:42:00,62.0,58.0,-100.00,SW,235,0.0,1.0,87,0.00,,,0.00,0.000000,,2013-08-17 02:42:00,
2013-08-16 21:52:00,62.0,58.0,-100.00,SW,235,0.0,1.0,87,0.00,,,0.00,0.000000,,2013-08-17 02:52:00,
2013-08-16 22:02:00,62.0,58.0,-100.00,SW,235,0.0,1.0,87,0.00,,,0.00,0.000000,,2013-08-17 03:02:00,
2013-08-16 22:10:00,60.0,58.0,-100.00,SW,235,0.0,0.0,93,0.00,,,0.00,0.000000,,2013-08-17 03:10:00,
2013-08-16 22:43:00,60.0,58.0,-100.00,SW,235,0.0,0.0,93,0.00,,,0.00,0.000000,,2013-08-17 03:43:00,
2013-08-16 22:53:00,60.0,58.0,-100.00,SW,235,0.0,0.0,93,0.00,,,0.00,0.000000,,2013-08-17 03:53:00,
2013-08-16 23:03:00,60.0,58.0,-100.00,SW,235,0.0,0.0,93,0.00,,,0.00,0.000000,,2013-08-17 04:03:00,
2013-08-16 23:10:00,58.0,57.0,-100.00,SW,235,0.0,0.0,96,0.00,,,0.00,0.000000,,2013-08-17 04:10:00,
2013-08-16 23:44:00,58.0,57.0,-100.00,SW,235,0.0,0.0,96,0.00,,,0.00,0.000000,,2013-08-17 04:44:00,
2013-08-16 23:53:00,58.0,57.0,-100.00,SW,235,0.0,0.0,96,0.00,,,0.00,0.000000,,2013-08-17 04:53:00,